createdAt,value
2022-11-13T00:00:12.558Z,97697.03
2022-11-13T00:02:59.579Z,97584.19
2022-11-13T00:05:46.152Z,97609.56
2022-11-13T00:08:34.811Z,97621.63
2022-11-13T00:11:22.428Z,97599.56
2022-11-13T00:14:09.385Z,97660.25
2022-11-13T00:16:55.945Z,97647.09
2022-11-13T00:19:42.631Z,97644.13
2022-11-13T00:22:29.502Z,97609.97
2022-11-13T00:25:17.761Z,97624.03
2022-11-13T00:28:04.574Z,97611.28
2022-11-13T00:30:51.392Z,97605.59
2022-11-13T00:34:05.167Z,97634.81
2022-11-13T00:36:44.804Z,97578.13
2022-11-13T00:39:31.477Z,97644.84
2022-11-13T00:42:19.553Z,97580.03
2022-11-13T00:45:09.015Z,97641.13
2022-11-13T00:47:55.608Z,97590.06
2022-11-13T00:50:42.322Z,97517.78
2022-11-13T00:53:29.155Z,97545.06
2022-11-13T00:56:15.907Z,97600.41
2022-11-13T00:59:04.294Z,97578.22
2022-11-13T01:01:51.035Z,97516.34
2022-11-13T01:04:37.828Z,97560.97
2022-11-13T01:07:30.863Z,97552.97
2022-11-13T01:10:17.585Z,97579.06
2022-11-13T01:13:04.332Z,97506.41
2022-11-13T01:15:52.269Z,97559.81
2022-11-13T01:18:39.708Z,97586.66
2022-11-13T01:21:28.969Z,97578.66
2022-11-13T01:24:15.946Z,97576.06
2022-11-13T01:27:02.957Z,97548.19
2022-11-13T01:29:49.507Z,97576.06
2022-11-13T01:32:37.732Z,97509.91
2022-11-13T01:35:24.363Z,97502.28
2022-11-13T01:38:11.120Z,97532.66
2022-11-13T01:40:57.917Z,97497.63
2022-11-13T01:43:44.735Z,97508.44
2022-11-13T01:46:34.441Z,97534.78
2022-11-13T01:49:30.132Z,97448.31
2022-11-13T01:52:21.321Z,97505.44
2022-11-13T01:55:12.923Z,97478.78
2022-11-13T01:58:00.243Z,97497.66
2022-11-13T02:00:47.008Z,97497.06
2022-11-13T02:03:34.064Z,97493.34
2022-11-13T02:06:22.911Z,97499.78
2022-11-13T02:09:11.167Z,97511.72
2022-11-13T02:11:58.848Z,97509.16
2022-11-13T02:14:48.867Z,97465.13
2022-11-13T02:17:42.751Z,97464.09
2022-11-13T02:20:37.183Z,97493.91
2022-11-13T02:23:37.364Z,97483.56
2022-11-13T02:26:27.639Z,97451.94
2022-11-13T02:29:14.362Z,97434.63
2022-11-13T02:32:01.097Z,97437.38
2022-11-13T02:34:47.949Z,97418.81
2022-11-13T02:37:34.482Z,97415.38
2022-11-13T02:40:21.400Z,97429.56
2022-11-13T02:43:09.734Z,97479.31
2022-11-13T02:45:56.789Z,97451.75
2022-11-13T02:48:43.932Z,97426.97
2022-11-13T02:51:31.009Z,97419.03
2022-11-13T02:54:17.490Z,97417.59
2022-11-13T02:57:04.126Z,97466.97
2022-11-13T02:59:52.837Z,97418.50
2022-11-13T03:02:39.694Z,97385.50
2022-11-13T03:05:35.622Z,97453.94
2022-11-13T03:08:24.173Z,97396.19
2022-11-13T03:11:12.496Z,97443.50
2022-11-13T03:13:59.319Z,97449.63
2022-11-13T03:16:52.620Z,97426.28
2022-11-13T03:19:39.761Z,97429.44
2022-11-13T03:22:26.706Z,97433.00
2022-11-13T03:25:13.580Z,97383.81
2022-11-13T03:28:00.738Z,97483.59
2022-11-13T03:30:48.997Z,97490.38
2022-11-13T03:33:37.263Z,97355.19
2022-11-13T03:36:24.200Z,97434.78
2022-11-13T03:39:11.205Z,97416.97
2022-11-13T03:42:04.298Z,97449.00
2022-11-13T03:44:51.368Z,97426.81
2022-11-13T03:47:38.068Z,97343.66
2022-11-13T03:50:26.030Z,97413.19
2022-11-13T03:53:12.910Z,97396.13
2022-11-13T03:55:59.876Z,97390.91
2022-11-13T03:58:49.596Z,97384.56
2022-11-13T04:01:36.805Z,97400.63
2022-11-13T04:04:23.707Z,97397.09
2022-11-13T04:07:11.972Z,97393.31
2022-11-13T04:09:58.653Z,97414.38
2022-11-13T04:12:45.417Z,97388.03
2022-11-13T04:15:32.007Z,97400.53
2022-11-13T04:18:18.839Z,97339.56
2022-11-13T04:21:06.908Z,97375.09
2022-11-13T04:23:55.411Z,97361.97
2022-11-13T04:26:42.248Z,97368.84
2022-11-13T04:29:28.930Z,97410.31
2022-11-13T04:32:15.787Z,97409.28
2022-11-13T04:35:02.436Z,97395.94
2022-11-13T04:37:49.073Z,97287.28
2022-11-13T04:40:37.144Z,97391.38
2022-11-13T04:43:22.957Z,97361.13
2022-11-13T04:46:09.928Z,97386.56
2022-11-13T04:48:57.119Z,97355.00
2022-11-13T04:51:43.637Z,97360.53
2022-11-13T04:54:30.274Z,97372.59
2022-11-13T04:57:18.207Z,97301.84
2022-11-13T05:00:07.679Z,97370.13
2022-11-13T05:02:54.380Z,97401.47
2022-11-13T05:05:41.767Z,97344.50
2022-11-13T05:08:28.683Z,97366.34
2022-11-13T05:11:15.383Z,97340.31
2022-11-13T05:14:03.932Z,97344.25
2022-11-13T05:16:51.645Z,97306.78
2022-11-13T05:19:38.600Z,97309.25
2022-11-13T05:22:25.194Z,97356.03
2022-11-13T05:25:12.054Z,97324.25
2022-11-13T05:27:59.199Z,97358.03
2022-11-13T05:30:47.705Z,97375.31
2022-11-13T05:33:35.085Z,97331.75
2022-11-13T05:36:22.397Z,97338.63
2022-11-13T05:39:09.470Z,97327.63
2022-11-13T05:41:56.067Z,97245.00
2022-11-13T05:44:42.844Z,97335.72
2022-11-13T05:47:30.990Z,97327.81
2022-11-13T05:50:18.186Z,97342.25
2022-11-13T05:53:04.899Z,97306.97
2022-11-13T05:55:51.667Z,97344.25
2022-11-13T05:58:38.866Z,97359.13
2022-11-13T06:01:28.870Z,97290.75
2022-11-13T06:04:17.009Z,97311.16
2022-11-13T06:07:03.748Z,97297.59
2022-11-13T06:09:50.815Z,97328.94
2022-11-13T06:12:37.544Z,97294.28
2022-11-13T06:15:24.339Z,97330.72
2022-11-13T06:18:11.031Z,97320.09
2022-11-13T06:21:03.270Z,97306.34
2022-11-13T06:23:50.331Z,97338.00
2022-11-13T06:26:38.784Z,97316.03
2022-11-13T06:29:25.809Z,97308.00
2022-11-13T06:32:12.418Z,97336.09
2022-11-13T06:34:59.177Z,97331.81
2022-11-13T06:37:47.212Z,97327.19
2022-11-13T06:40:34.195Z,97346.72
2022-11-13T06:43:20.797Z,97324.66
2022-11-13T06:46:11.691Z,97312.91
2022-11-13T06:48:59.246Z,97329.56
2022-11-13T06:51:45.972Z,97282.59
2022-11-13T06:54:37.921Z,97312.19
2022-11-13T06:57:24.624Z,97308.00
2022-11-13T07:00:13.682Z,97304.59
2022-11-13T07:03:00.700Z,97301.56
2022-11-13T07:05:48.487Z,97296.56
2022-11-13T07:08:35.601Z,97309.38
2022-11-13T07:11:24.810Z,97340.72
2022-11-13T07:14:13.421Z,97322.16
2022-11-13T07:17:14.892Z,97317.59
2022-11-13T07:20:01.922Z,97296.34
2022-11-13T07:22:48.555Z,97273.72
2022-11-13T07:25:35.477Z,97291.84
2022-11-13T07:28:23.750Z,97114.06
2022-11-13T07:31:12.455Z,97269.34
2022-11-13T07:33:59.378Z,97289.72
2022-11-13T07:36:46.039Z,97295.38
2022-11-13T07:39:32.763Z,97295.22
2022-11-13T07:42:19.300Z,97283.59
2022-11-13T07:45:08.660Z,97242.19
2022-11-13T07:48:00.199Z,97268.06
2022-11-13T07:50:46.821Z,97263.13
2022-11-13T07:53:35.703Z,97240.16
2022-11-13T07:56:23.426Z,97145.38
2022-11-13T07:59:10.179Z,97212.19
2022-11-13T08:01:58.232Z,97250.50
2022-11-13T08:04:44.996Z,97242.09
2022-11-13T08:07:31.628Z,97231.22
2022-11-13T08:10:20.406Z,97257.78
2022-11-13T08:13:10.796Z,97175.28
2022-11-13T08:16:01.131Z,97249.94
2022-11-13T08:18:49.202Z,97224.03
2022-11-13T08:21:37.169Z,97216.16
2022-11-13T08:24:24.023Z,97183.84
2022-11-13T08:27:10.858Z,97194.25
2022-11-13T08:29:57.380Z,97167.59
2022-11-13T08:32:44.073Z,97211.75
2022-11-13T08:35:32.587Z,97157.72
2022-11-13T08:38:19.699Z,97138.63
2022-11-13T08:41:09.667Z,97178.72
2022-11-13T08:43:56.741Z,97174.94
2022-11-13T08:46:43.453Z,97176.75
2022-11-13T08:49:30.030Z,97114.91
2022-11-13T08:52:18.401Z,97106.63
2022-11-13T08:55:06.061Z,97148.97
2022-11-13T08:57:53.237Z,97150.94
2022-11-13T09:00:39.913Z,97107.31
2022-11-13T09:03:27.055Z,97162.53
2022-11-13T09:06:14.012Z,97173.06
2022-11-13T09:09:02.380Z,97121.72
2022-11-13T09:11:49.377Z,97091.47
2022-11-13T09:14:36.781Z,97143.25
2022-11-13T09:17:23.898Z,97075.03
2022-11-13T09:20:13.950Z,97086.34
2022-11-13T09:23:03.367Z,97155.16
2022-11-13T09:25:51.345Z,97142.97
2022-11-13T09:28:38.226Z,97138.69
2022-11-13T09:31:24.944Z,97113.91
2022-11-13T09:34:11.617Z,97124.66
2022-11-13T09:36:58.252Z,97098.31
2022-11-13T09:39:44.838Z,97163.56
2022-11-13T09:42:34.493Z,97172.59
2022-11-13T09:45:21.242Z,97156.28
2022-11-13T09:48:29.399Z,97163.28
2022-11-13T09:51:20.389Z,97148.59
2022-11-13T09:54:14.997Z,97111.97
2022-11-13T09:57:13.735Z,97171.41
2022-11-13T10:00:06.791Z,97112.16
2022-11-13T10:03:09.997Z,97159.44
2022-11-13T10:06:05.472Z,97149.59
2022-11-13T10:08:58.530Z,97154.28
2022-11-13T10:11:50.570Z,97134.41
2022-11-13T10:14:44.014Z,97137.66
2022-11-13T10:17:36.845Z,97142.91
2022-11-13T10:20:26.855Z,97135.88
2022-11-13T10:23:21.349Z,97133.59
2022-11-13T10:26:16.948Z,97125.13
2022-11-13T10:29:11.987Z,97116.59
2022-11-13T10:31:59.361Z,97097.53
2022-11-13T10:34:52.374Z,97073.81
2022-11-13T10:37:56.650Z,97097.88
2022-11-13T10:40:43.866Z,97096.91
2022-11-13T10:43:30.979Z,97087.34
2022-11-13T10:46:21.826Z,97044.22
2022-11-13T10:49:19.737Z,96932.31
2022-11-13T10:52:21.105Z,97040.31
2022-11-13T10:55:19.106Z,97059.00
2022-11-13T10:58:15.441Z,97082.28
2022-11-13T11:01:02.301Z,97053.41
2022-11-13T11:03:53.060Z,97012.94
2022-11-13T11:07:18.370Z,97027.81
2022-11-13T11:09:52.340Z,96985.97
2022-11-13T11:12:39.225Z,96943.09
2022-11-13T11:15:32.519Z,97100.03
2022-11-13T11:18:28.211Z,97007.00
2022-11-13T11:21:19.939Z,97002.50
2022-11-13T11:24:15.432Z,96984.38
2022-11-13T11:27:11.705Z,96993.56
2022-11-13T11:30:06.786Z,97046.41
2022-11-13T11:33:06.309Z,97011.75
2022-11-13T11:36:00.483Z,96941.59
2022-11-13T11:38:57.139Z,96983.75
2022-11-13T11:41:52.239Z,96980.50
2022-11-13T11:44:56.606Z,96945.13
2022-11-13T11:47:43.386Z,96974.84
2022-11-13T11:50:44.155Z,96969.91
2022-11-13T11:53:43.107Z,96981.19
2022-11-13T11:56:36.200Z,96928.69
2022-11-13T12:00:02.910Z,96922.13
2022-11-13T12:03:49.630Z,96928.63
2022-11-13T12:06:52.722Z,96924.00
2022-11-13T12:09:47.262Z,96883.72
2022-11-13T12:12:52.526Z,96879.72
2022-11-13T12:15:48.387Z,96872.59
2022-11-13T12:18:50.538Z,96890.09
2022-11-13T12:21:50.733Z,96852.63
2022-11-13T12:24:55.674Z,96826.59
2022-11-13T12:27:49.238Z,96880.25
2022-11-13T12:30:48.687Z,96838.31
2022-11-13T12:33:44.137Z,96797.22
2022-11-13T12:36:31.757Z,96832.91
2022-11-13T12:39:39.405Z,96839.69
2022-11-13T12:42:35.852Z,96820.69
2022-11-13T12:45:31.280Z,96844.06
2022-11-13T12:48:34.992Z,96853.09
2022-11-13T12:51:22.071Z,96824.00
2022-11-13T12:54:11.763Z,96853.06
2022-11-13T12:57:28.610Z,96809.00
2022-11-13T13:00:27.496Z,96779.22
2022-11-13T13:03:48.050Z,96793.28
2022-11-13T13:07:06.263Z,96858.75
2022-11-13T13:10:07.140Z,96762.03
2022-11-13T13:13:05.834Z,96795.06
2022-11-13T13:15:57.976Z,96801.56
2022-11-13T13:18:45.939Z,96786.00
2022-11-13T13:21:42.715Z,96797.47
2022-11-13T13:24:34.058Z,96792.44
2022-11-13T13:27:26.550Z,96780.97
2022-11-13T13:30:22.526Z,96826.56
2022-11-13T13:33:22.059Z,96796.09
2022-11-13T13:36:23.104Z,96817.78
2022-11-13T13:39:26.378Z,96757.47
2022-11-13T13:42:30.884Z,96811.59
2022-11-13T13:45:33.843Z,96712.16
2022-11-13T13:48:30.470Z,96775.66
2022-11-13T13:51:27.701Z,96783.69
2022-11-13T13:54:24.169Z,96774.97
2022-11-13T13:57:16.350Z,96684.06
2022-11-13T14:00:03.233Z,96760.06
2022-11-13T14:02:52.697Z,96759.97
2022-11-13T14:05:39.938Z,96708.50
2022-11-13T14:08:29.368Z,96766.53
2022-11-13T14:11:21.935Z,96792.59
2022-11-13T14:14:10.746Z,96723.72
2022-11-13T14:17:00.467Z,96746.88
2022-11-13T14:19:51.604Z,96791.72
2022-11-13T14:22:38.920Z,96738.84
2022-11-13T14:25:30.146Z,96720.28
2022-11-13T14:28:19.327Z,96720.31
2022-11-13T14:31:08.418Z,96749.88
2022-11-13T14:33:55.395Z,96717.84
2022-11-13T14:36:42.093Z,96734.34
2022-11-13T14:39:34.292Z,96759.03
2022-11-13T14:42:28.911Z,96744.53
2022-11-13T14:45:20.310Z,96775.16
2022-11-13T14:48:20.400Z,96723.81
2022-11-13T14:51:23.802Z,96752.66
2022-11-13T14:55:00.264Z,96743.28
2022-11-13T14:57:50.418Z,96702.03
2022-11-13T15:00:39.565Z,96679.69
2022-11-13T15:03:28.076Z,96785.03
2022-11-13T15:06:18.101Z,96727.28
2022-11-13T15:09:06.687Z,96744.31
2022-11-13T15:11:54.019Z,96680.50
2022-11-13T15:14:45.420Z,96710.97
2022-11-13T15:17:33.474Z,96731.53
2022-11-13T15:20:24.666Z,96734.97
2022-11-13T15:23:15.155Z,96734.94
2022-11-13T15:26:02.036Z,96737.59
2022-11-13T15:28:48.668Z,96728.63
2022-11-13T15:31:39.670Z,96736.22
2022-11-13T15:34:26.844Z,96713.34
2022-11-13T15:37:14.861Z,96765.09
2022-11-13T15:40:01.960Z,96680.41
2022-11-13T15:42:49.205Z,96661.28
2022-11-13T15:45:39.856Z,96717.13
2022-11-13T15:48:31.389Z,96686.16
2022-11-13T15:51:22.101Z,96564.22
2022-11-13T15:54:16.987Z,96709.50
2022-11-13T15:57:04.072Z,96729.66
2022-11-13T15:59:51.043Z,96706.97
2022-11-13T16:02:39.022Z,96730.38
2022-11-13T16:05:29.686Z,96611.78
2022-11-13T16:08:17.126Z,96675.03
2022-11-13T16:11:03.903Z,96690.44
2022-11-13T16:13:50.637Z,96657.19
2022-11-13T16:16:40.749Z,96735.16
2022-11-13T16:19:27.672Z,96759.78
2022-11-13T16:22:22.490Z,96711.72
2022-11-13T16:25:12.751Z,96763.19
2022-11-13T16:27:59.929Z,96722.94
2022-11-13T16:30:47.927Z,96725.00
2022-11-13T16:33:37.069Z,96740.44
2022-11-13T16:36:24.119Z,96724.47
2022-11-13T16:39:16.997Z,96759.34
2022-11-13T16:42:03.670Z,96710.38
2022-11-13T16:44:50.303Z,96678.44
2022-11-13T16:47:36.952Z,96782.25
2022-11-13T16:50:28.306Z,96768.84
2022-11-13T16:53:15.197Z,96735.75
2022-11-13T16:56:03.562Z,96730.41
2022-11-13T16:58:50.208Z,96773.09
2022-11-13T17:01:36.717Z,96746.44
2022-11-13T17:04:34.361Z,96751.78
2022-11-13T17:07:22.943Z,96710.16
2022-11-13T17:10:30.866Z,96614.88
2022-11-13T17:13:20.065Z,96716.19
2022-11-13T17:16:07.420Z,96668.81
2022-11-13T17:18:55.642Z,96747.31
2022-11-13T17:21:44.342Z,96712.91
2022-11-13T17:24:31.618Z,96739.44
2022-11-13T17:27:18.768Z,96739.75
2022-11-13T17:30:09.428Z,96713.69
2022-11-13T17:32:56.579Z,96746.84
2022-11-13T17:35:46.335Z,96726.66
2022-11-13T17:38:33.568Z,96706.84
2022-11-13T17:41:20.838Z,96737.72
2022-11-13T17:44:08.101Z,96775.75
2022-11-13T17:46:56.057Z,96768.94
2022-11-13T17:49:42.792Z,96725.47
2022-11-13T17:52:29.555Z,96730.50
2022-11-13T17:55:17.317Z,96715.09
2022-11-13T17:58:04.599Z,96745.00
2022-11-13T18:00:52.341Z,96681.97
2022-11-13T18:03:42.626Z,96722.22
2022-11-13T18:06:29.287Z,96720.63
2022-11-13T18:09:15.982Z,96746.09
2022-11-13T18:12:02.583Z,96744.88
2022-11-13T18:14:52.409Z,96639.41
2022-11-13T18:17:39.151Z,96712.72
2022-11-13T18:20:27.879Z,96695.28
2022-11-13T18:23:14.785Z,96682.63
2022-11-13T18:26:09.669Z,96690.41
2022-11-13T18:28:57.113Z,96753.09
2022-11-13T18:31:44.397Z,96673.06
2022-11-13T18:34:31.390Z,96611.13
2022-11-13T18:37:19.745Z,96730.19
2022-11-13T18:40:08.543Z,96664.78
2022-11-13T18:42:55.227Z,96686.00
2022-11-13T18:45:42.055Z,96650.06
2022-11-13T18:48:31.911Z,96665.31
2022-11-13T18:51:21.903Z,96712.97
2022-11-13T18:54:11.973Z,96669.72
2022-11-13T18:56:58.571Z,96671.13
2022-11-13T18:59:45.206Z,96706.25
2022-11-13T19:02:31.846Z,96692.03
2022-11-13T19:05:18.514Z,96729.38
2022-11-13T19:08:05.377Z,96678.66
2022-11-13T19:10:53.670Z,96669.72
2022-11-13T19:13:42.131Z,96623.22
2022-11-13T19:16:33.258Z,96663.59
2022-11-13T19:19:23.393Z,96642.13
2022-11-13T19:22:10.781Z,96661.44
2022-11-13T19:24:57.787Z,96656.19
2022-11-13T19:27:46.146Z,96622.03
2022-11-13T19:30:32.892Z,96666.72
2022-11-13T19:33:19.685Z,96628.97
2022-11-13T19:36:16.078Z,96543.94
2022-11-13T19:39:04.067Z,96701.28
2022-11-13T19:41:51.296Z,96627.44
2022-11-13T19:44:39.319Z,96683.78
2022-11-13T19:47:26.261Z,96618.19
2022-11-13T19:50:14.390Z,96658.28
2022-11-13T19:53:01.685Z,96549.75
2022-11-13T19:55:56.021Z,96703.91
2022-11-13T19:58:44.356Z,96659.41
2022-11-13T20:01:32.907Z,96614.69
2022-11-13T20:04:20.060Z,96633.38
2022-11-13T20:07:07.132Z,96662.31
2022-11-13T20:09:54.025Z,96644.41
2022-11-13T20:12:40.744Z,96607.25
2022-11-13T20:15:27.575Z,96643.59
2022-11-13T20:18:17.331Z,96687.66
2022-11-13T20:21:04.698Z,96633.69
2022-11-13T20:23:53.969Z,96610.06
2022-11-13T20:26:41.277Z,96596.66
2022-11-13T20:29:28.020Z,96679.53
2022-11-13T20:32:14.643Z,96675.81
2022-11-13T20:35:02.855Z,96637.97
2022-11-13T20:37:49.950Z,96577.81
2022-11-13T20:40:36.499Z,96657.22
2022-11-13T20:43:23.749Z,96689.88
2022-11-13T20:46:13.517Z,96650.78
2022-11-13T20:49:01.071Z,96681.31
2022-11-13T20:51:51.432Z,96646.94
2022-11-13T20:54:40.835Z,96627.34
2022-11-13T20:57:27.558Z,96663.19
2022-11-13T21:00:15.374Z,96618.81
2022-11-13T21:03:02.016Z,96538.47
2022-11-13T21:05:59.106Z,96627.06
2022-11-13T21:08:49.404Z,96568.47
2022-11-13T21:11:36.565Z,96670.78
2022-11-13T21:14:23.465Z,96617.41
2022-11-13T21:17:10.195Z,96600.66
2022-11-13T21:19:57.888Z,96663.09
2022-11-13T21:22:44.758Z,96695.09
2022-11-13T21:25:33.404Z,96656.97
2022-11-13T21:28:24.076Z,96685.00
2022-11-13T21:31:17.175Z,96601.28
2022-11-13T21:34:04.013Z,96643.22
2022-11-13T21:36:50.790Z,96678.81
2022-11-13T21:39:37.569Z,96611.84
2022-11-13T21:42:25.731Z,96646.53
2022-11-13T21:45:12.683Z,96587.34
2022-11-13T21:47:59.356Z,96545.41
2022-11-13T21:50:45.950Z,96596.56
2022-11-13T21:53:32.750Z,96613.63
2022-11-13T21:56:19.736Z,96616.94
2022-11-13T21:59:08.155Z,96622.00
2022-11-13T22:01:54.960Z,96599.34
2022-11-13T22:04:41.537Z,96648.00
2022-11-13T22:07:28.263Z,96576.38
2022-11-13T22:10:15.278Z,96506.78
2022-11-13T22:13:02.072Z,96649.78
2022-11-13T22:15:50.943Z,96644.13
2022-11-13T22:18:37.671Z,96604.03
2022-11-13T22:21:26.352Z,96614.38
2022-11-13T22:24:14.852Z,96661.66
2022-11-13T22:27:01.884Z,96587.16
2022-11-13T22:29:48.749Z,96633.88
2022-11-13T22:32:36.693Z,96625.56
2022-11-13T22:35:23.367Z,96647.75
2022-11-13T22:38:10.610Z,96612.31
2022-11-13T22:41:02.874Z,96629.50
2022-11-13T22:43:51.851Z,96618.75
2022-11-13T22:46:38.448Z,96580.69
2022-11-13T22:49:26.629Z,96530.75
2022-11-13T22:52:13.523Z,96636.72
2022-11-13T22:55:00.254Z,96623.25
2022-11-13T22:57:47.012Z,96526.47
2022-11-13T23:00:33.672Z,96541.88
2022-11-13T23:03:20.393Z,96606.78
2022-11-13T23:06:14.075Z,96615.72
2022-11-13T23:09:01.646Z,96584.06
2022-11-13T23:11:48.288Z,96630.25
2022-11-13T23:14:35.317Z,96596.94
2022-11-13T23:17:22.086Z,96587.59
2022-11-13T23:20:13.392Z,96499.47
2022-11-13T23:23:01.791Z,96563.75
2022-11-13T23:25:48.795Z,96565.53
2022-11-13T23:28:35.560Z,96570.06
2022-11-13T23:31:22.360Z,96569.81
2022-11-13T23:34:09.521Z,96552.34
2022-11-13T23:36:56.468Z,96557.44
2022-11-13T23:39:44.455Z,96522.44
2022-11-13T23:42:53.447Z,96575.31
2022-11-13T23:45:38.265Z,96560.31
2022-11-13T23:48:26.042Z,96559.69
2022-11-13T23:51:12.906Z,96550.72
2022-11-13T23:53:59.793Z,96549.44
2022-11-13T23:56:47.839Z,96546.72
2022-11-13T23:59:34.701Z,96559.00
